Oak Grove, Arkansas
Current Conditions -  °F | °C
As of 7:46 PM on Wednesday 22 Oct 2014 (Local Time) from KBBG Reporting Station
Few Clouds Few Clouds  
Wind Chill: 52°   Ceiling: Unl
Heat Index: 52°   Visibility: 10mi
Dew Point: 48°   Wind: 7mph
Humidity: 88%   Direction: 120°ESE
Pressure: 30.19"   Gusts: NA
Location:  36.46°N, 93.44°W
Report Text: KBBG 230046Z 12006KT 10SM FEW250 11/09 A3019
Loading
Personal Weather Stations






























Interactive Weather Map
Tropical Storm Tracking
New forecast layout! Learn more

10-Day Weather Forecast

Advertisements
Track Severe Weather on mobile